createdAt,value
2022-07-25T00:01:58.973Z,98053.88
2022-07-25T00:10:47.156Z,98056.19
2022-07-25T00:14:05.536Z,98058.78
2022-07-25T00:17:42.981Z,98054.06
2022-07-25T00:24:52.863Z,98060.84
2022-07-25T00:27:57.949Z,98054.47
2022-07-25T00:31:04.927Z,98059.13
2022-07-25T00:34:11.026Z,98046.59
2022-07-25T00:37:20.052Z,98047.09
2022-07-25T00:40:24.798Z,98054.47
2022-07-25T00:43:33.964Z,98054.53
2022-07-25T00:46:40.298Z,98050.22
2022-07-25T00:49:48.938Z,98043.97
2022-07-25T00:52:53.541Z,98044.84
2022-07-25T00:56:00.186Z,98049.56
2022-07-25T00:59:11.214Z,98055.06
2022-07-25T01:03:13.405Z,98059.81
2022-07-25T01:06:24.901Z,98063.72
2022-07-25T01:09:30.107Z,98057.06
2022-07-25T01:12:45.202Z,98059.94
2022-07-25T01:15:49.389Z,98058.44
2022-07-25T01:18:53.580Z,98044.81
2022-07-25T01:21:59.221Z,98054.38
2022-07-25T01:25:03.566Z,98041.81
2022-07-25T01:28:09.708Z,98052.09
2022-07-25T01:31:15.481Z,98038.38
2022-07-25T01:34:22.946Z,98047.47
2022-07-25T01:37:30.302Z,98049.09
2022-07-25T01:40:34.166Z,98036.13
2022-07-25T01:43:38.411Z,98050.31
2022-07-25T01:46:44.962Z,98036.53
2022-07-25T01:49:53.604Z,98047.94
2022-07-25T01:52:59.182Z,98036.31
2022-07-25T01:56:03.692Z,98036.34
2022-07-25T01:59:08.884Z,98038.16
2022-07-25T02:02:40.916Z,98037.50
2022-07-25T02:06:03.227Z,98042.94
2022-07-25T02:09:25.956Z,98042.16
2022-07-25T02:12:31.211Z,98026.66
2022-07-25T02:15:35.170Z,98031.94
2022-07-25T02:18:38.797Z,98036.97
2022-07-25T02:21:43.349Z,98040.44
2022-07-25T02:24:50.602Z,98037.59
2022-07-25T02:27:54.917Z,98048.06
2022-07-25T02:30:58.723Z,98032.34
2022-07-25T02:34:03.870Z,98034.31
2022-07-25T02:37:08.215Z,98035.31
2022-07-25T02:40:15.056Z,98041.81
2022-07-25T02:43:19.478Z,98034.22
2022-07-25T02:46:24.002Z,98036.53
2022-07-25T02:49:55.783Z,98037.16
2022-07-25T02:53:13.216Z,98046.41
2022-07-25T02:59:43.583Z,98047.16
2022-07-25T03:02:47.822Z,98048.81
2022-07-25T03:05:52.863Z,98039.59
2022-07-25T03:08:57.007Z,98041.72
2022-07-25T03:12:05.790Z,98041.44
2022-07-25T03:15:10.812Z,98042.44
2022-07-25T03:18:15.680Z,98037.56
2022-07-25T03:21:20.071Z,98039.34
2022-07-25T03:24:26.261Z,98039.28
2022-07-25T03:28:18.830Z,98045.25
2022-07-25T03:31:24.521Z,98043.53
2022-07-25T03:34:33.147Z,98054.13
2022-07-25T03:37:37.301Z,98043.63
2022-07-25T03:40:41.117Z,98040.16
2022-07-25T03:43:46.872Z,98058.53
2022-07-25T03:46:53.593Z,98054.34
2022-07-25T03:49:57.748Z,98061.94
2022-07-25T03:53:01.782Z,98060.44
2022-07-25T03:56:06.951Z,98058.03
2022-07-25T03:59:18.532Z,98058.16
2022-07-25T04:02:23.193Z,98048.06
2022-07-25T04:05:27.201Z,98062.81
2022-07-25T04:08:31.514Z,98059.66
2022-07-25T04:16:56.683Z,98057.31
2022-07-25T04:20:00.760Z,98058.66
2022-07-25T04:23:06.803Z,98072.03
2022-07-25T04:26:10.541Z,98069.94
2022-07-25T04:29:15.046Z,98064.03
2022-07-25T04:32:23.523Z,98055.97
2022-07-25T04:35:28.201Z,98061.19
2022-07-25T04:38:32.299Z,98061.16
2022-07-25T04:41:37.103Z,98055.06
2022-07-25T04:44:41.162Z,98071.25
2022-07-25T04:47:47.667Z,98070.16
2022-07-25T04:50:53.601Z,98062.59
2022-07-25T04:53:58.138Z,98067.22
2022-07-25T04:57:06.555Z,98069.47
2022-07-25T05:00:15.524Z,98069.06
2022-07-25T05:03:23.256Z,98060.81
2022-07-25T05:06:28.179Z,98067.44
2022-07-25T05:09:32.375Z,98067.53
2022-07-25T05:12:37.116Z,98060.28
2022-07-25T05:15:41.852Z,98054.47
2022-07-25T05:18:48.420Z,98061.22
2022-07-25T05:21:52.827Z,98065.00
2022-07-25T05:24:58.317Z,98064.97
2022-07-25T05:28:03.495Z,98060.19
2022-07-25T05:31:08.625Z,98070.47
2022-07-25T05:34:15.112Z,98060.88
2022-07-25T05:37:20.281Z,98054.09
2022-07-25T05:40:25.208Z,98051.50
2022-07-25T05:43:35.358Z,98054.81
2022-07-25T05:46:39.487Z,98042.78
2022-07-25T05:49:46.406Z,98051.91
2022-07-25T05:52:51.833Z,98038.78
2022-07-25T05:55:56.349Z,98037.44
2022-07-25T05:59:00.699Z,98036.16
2022-07-25T06:02:06.801Z,98031.16
2022-07-25T06:05:12.868Z,98026.78
2022-07-25T06:08:18.273Z,98041.28
2022-07-25T06:11:22.965Z,98039.00
2022-07-25T06:14:28.337Z,98035.81
2022-07-25T06:17:32.804Z,98044.22
2022-07-25T06:20:40.614Z,98043.19
2022-07-25T06:23:44.435Z,98043.88
2022-07-25T06:26:50.195Z,98043.56
2022-07-25T06:29:54.020Z,98040.13
2022-07-25T06:32:58.538Z,98029.56
2022-07-25T06:36:05.623Z,98043.13
2022-07-25T06:39:13.237Z,98025.22
2022-07-25T06:42:18.621Z,98022.03
2022-07-25T06:45:25.230Z,98027.66
2022-07-25T06:48:30.627Z,98024.34
2022-07-25T06:51:37.128Z,98017.16
2022-07-25T06:54:43.350Z,98016.91
2022-07-25T06:57:48.133Z,98013.41
2022-07-25T07:00:52.158Z,98020.34
2022-07-25T07:03:56.892Z,98016.31
2022-07-25T07:07:06.609Z,98009.03
2022-07-25T07:10:15.791Z,98008.75
2022-07-25T07:13:24.465Z,98011.63
2022-07-25T07:16:31.152Z,98005.41
2022-07-25T07:19:48.274Z,97999.00
2022-07-25T07:22:54.706Z,97997.59
2022-07-25T07:26:00.999Z,98004.56
2022-07-25T07:29:10.332Z,98001.63
2022-07-25T07:32:15.366Z,98006.00
2022-07-25T07:35:20.074Z,97997.63
2022-07-25T07:38:25.524Z,97997.06
2022-07-25T07:41:29.637Z,98001.81
2022-07-25T07:44:36.041Z,98001.72
2022-07-25T07:47:40.224Z,98003.53
2022-07-25T07:50:44.854Z,97998.50
2022-07-25T07:54:08.221Z,98007.47
2022-07-25T07:57:12.261Z,98001.97
2022-07-25T08:00:17.754Z,98007.09
2022-07-25T08:03:23.068Z,97997.63
2022-07-25T08:06:28.443Z,98001.56
2022-07-25T08:09:43.951Z,98001.41
2022-07-25T08:13:46.845Z,98002.13
2022-07-25T08:16:52.952Z,98007.75
2022-07-25T08:20:09.402Z,98003.06
2022-07-25T08:23:24.886Z,97998.44
2022-07-25T08:26:36.216Z,97990.94
2022-07-25T08:29:40.999Z,97990.63
2022-07-25T08:32:52.738Z,97987.88
2022-07-25T08:35:59.214Z,97989.84
2022-07-25T08:39:08.485Z,97982.41
2022-07-25T08:42:16.783Z,97985.69
2022-07-25T08:45:22.176Z,97985.16
2022-07-25T08:48:29.988Z,97982.63
2022-07-25T08:51:36.394Z,97974.78
2022-07-25T08:54:42.366Z,97979.75
2022-07-25T08:57:50.678Z,97972.91
2022-07-25T09:01:03.557Z,97977.91
2022-07-25T09:04:20.722Z,97968.44
2022-07-25T09:07:32.795Z,97961.34
2022-07-25T09:10:38.561Z,97956.41
2022-07-25T09:14:01.008Z,97967.31
2022-07-25T09:17:59.646Z,97959.25
2022-07-25T09:21:20.559Z,97951.34
2022-07-25T09:24:32.745Z,97951.63
2022-07-25T09:27:40.517Z,97948.66
2022-07-25T09:30:57.250Z,97954.56
2022-07-25T09:34:09.028Z,97947.22
2022-07-25T09:37:16.307Z,97945.88
2022-07-25T09:40:21.030Z,97949.09
2022-07-25T09:43:38.227Z,97946.63
2022-07-25T09:46:45.819Z,97946.44
2022-07-25T09:49:52.917Z,97935.69
2022-07-25T09:53:07.896Z,97935.06
2022-07-25T09:56:19.178Z,97932.03
2022-07-25T09:59:27.641Z,97920.91
2022-07-25T10:02:44.844Z,97922.03
2022-07-25T10:06:07.442Z,97915.69
2022-07-25T10:09:15.913Z,97914.47
2022-07-25T10:12:23.275Z,97915.97
2022-07-25T10:15:48.871Z,97904.50
2022-07-25T10:18:58.343Z,97900.22
2022-07-25T10:22:03.656Z,97899.41
2022-07-25T10:25:17.459Z,97895.19
2022-07-25T10:28:23.978Z,97890.09
2022-07-25T10:31:36.668Z,97888.41
2022-07-25T10:34:54.648Z,97896.38
2022-07-25T10:38:01.256Z,97881.66
2022-07-25T10:41:13.479Z,97884.53
2022-07-25T10:44:18.601Z,97872.53
2022-07-25T10:47:26.492Z,97862.38
2022-07-25T10:50:54.401Z,97860.38
2022-07-25T10:53:58.368Z,97867.31
2022-07-25T10:57:06.910Z,97867.16
2022-07-25T11:00:20.873Z,97859.44
2022-07-25T11:03:29.208Z,97861.50
2022-07-25T11:06:38.285Z,97852.59
2022-07-25T11:09:44.515Z,97847.53
2022-07-25T11:12:49.207Z,97842.00
2022-07-25T11:16:02.552Z,97840.41
2022-07-25T11:19:21.860Z,97839.66
2022-07-25T11:22:29.790Z,97833.50
2022-07-25T11:25:37.836Z,97826.66
2022-07-25T11:28:45.822Z,97829.81
2022-07-25T11:32:02.335Z,97819.34
2022-07-25T11:35:11.056Z,97813.03
2022-07-25T11:38:18.044Z,97809.75
2022-07-25T11:41:32.894Z,97826.84
2022-07-25T11:44:47.855Z,97813.09
2022-07-25T11:48:09.727Z,97796.56
2022-07-25T11:51:19.621Z,97806.84
2022-07-25T11:54:28.006Z,97798.91
2022-07-25T11:57:35.062Z,97802.97
2022-07-25T12:00:51.056Z,97793.09
2022-07-25T12:04:10.640Z,97793.53
2022-07-25T12:07:15.290Z,97789.81
2022-07-25T12:10:25.952Z,97789.22
2022-07-25T12:13:34.199Z,97776.28
2022-07-25T12:16:45.877Z,97782.69
2022-07-25T12:19:50.702Z,97777.47
2022-07-25T12:22:56.553Z,97774.94
2022-07-25T12:26:02.552Z,97773.25
2022-07-25T12:29:10.355Z,97771.69
2022-07-25T12:32:15.027Z,97765.03
2022-07-25T12:35:20.888Z,97771.97
2022-07-25T12:38:43.455Z,97766.84
2022-07-25T12:41:52.148Z,97750.41
2022-07-25T12:44:56.896Z,97753.59
2022-07-25T12:48:02.256Z,97741.41
2022-07-25T12:51:08.196Z,97751.22
2022-07-25T12:54:13.113Z,97752.38
2022-07-25T12:57:21.939Z,97744.44
2022-07-25T13:00:27.604Z,97734.88
2022-07-25T13:03:32.459Z,97721.78
2022-07-25T13:06:39.198Z,97734.25
2022-07-25T13:09:43.885Z,97726.88
2022-07-25T13:12:57.320Z,97715.69
2022-07-25T13:16:03.023Z,97714.59
2022-07-25T13:19:08.614Z,97718.84
2022-07-25T13:22:42.177Z,97711.66
2022-07-25T13:25:47.194Z,97708.56
2022-07-25T13:28:59.422Z,97700.66
2022-07-25T13:32:07.629Z,97704.94
2022-07-25T13:35:17.780Z,97703.41
2022-07-25T13:38:24.705Z,97691.81
2022-07-25T13:41:28.596Z,97695.03
2022-07-25T13:44:36.605Z,97688.81
2022-07-25T13:47:44.064Z,97694.84
2022-07-25T13:50:52.104Z,97685.88
2022-07-25T13:53:55.788Z,97691.00
2022-07-25T13:57:01.492Z,97675.16
2022-07-25T14:00:09.064Z,97677.84
2022-07-25T14:03:14.428Z,97674.22
2022-07-25T14:06:18.660Z,97671.03
2022-07-25T14:13:17.441Z,97665.69
2022-07-25T14:16:24.187Z,97660.44
2022-07-25T14:19:31.279Z,97647.16
2022-07-25T14:22:35.707Z,97653.84
2022-07-25T14:25:40.251Z,97647.03
2022-07-25T14:28:44.767Z,97646.47
2022-07-25T14:31:50.564Z,97647.84
2022-07-25T14:34:54.802Z,97647.03
2022-07-25T14:37:58.887Z,97641.00
2022-07-25T14:41:10.727Z,97634.50
2022-07-25T14:44:19.631Z,97638.56
2022-07-25T14:47:26.778Z,97638.81
2022-07-25T14:50:31.143Z,97635.44
2022-07-25T14:53:35.412Z,97626.03
2022-07-25T14:56:40.098Z,97630.88
2022-07-25T14:59:45.332Z,97626.72
2022-07-25T15:03:01.570Z,97624.88
2022-07-25T15:06:12.185Z,97617.84
2022-07-25T15:09:18.472Z,97619.03
2022-07-25T15:12:27.764Z,97620.47
2022-07-25T15:15:36.512Z,97609.72
2022-07-25T15:19:13.390Z,97610.97
2022-07-25T15:22:09.336Z,97601.63
2022-07-25T15:25:59.642Z,97601.50
2022-07-25T15:28:43.225Z,97591.19
2022-07-25T15:32:06.746Z,97585.72
2022-07-25T15:35:20.269Z,97588.72
2022-07-25T15:38:32.329Z,97582.97
2022-07-25T15:41:39.832Z,97586.63
2022-07-25T15:44:49.266Z,97583.84
2022-07-25T15:48:08.408Z,97581.44
2022-07-25T15:51:19.958Z,97576.56
2022-07-25T15:54:29.489Z,97579.69
2022-07-25T15:57:35.653Z,97577.28
2022-07-25T16:00:41.687Z,97580.03
2022-07-25T16:03:49.371Z,97576.28
2022-07-25T16:06:58.026Z,97582.19
2022-07-25T16:10:01.844Z,97575.38
2022-07-25T16:13:06.672Z,97570.91
2022-07-25T16:16:19.339Z,97578.22
2022-07-25T16:19:30.287Z,97573.97
2022-07-25T16:22:36.547Z,97574.25
2022-07-25T16:25:51.652Z,97578.22
2022-07-25T16:28:58.081Z,97562.56
2022-07-25T16:32:04.220Z,97563.41
2022-07-25T16:35:12.682Z,97562.41
2022-07-25T16:39:10.925Z,97567.03
2022-07-25T16:42:31.246Z,97560.00
2022-07-25T16:45:35.428Z,97566.13
2022-07-25T16:48:51.306Z,97569.16
2022-07-25T16:52:37.105Z,97563.28
2022-07-25T16:55:45.148Z,97564.72
2022-07-25T16:59:45.089Z,97557.94
2022-07-25T17:02:51.765Z,97566.56
2022-07-25T17:05:57.327Z,97562.22
2022-07-25T17:09:04.012Z,97558.91
2022-07-25T17:12:10.443Z,97573.16
2022-07-25T17:15:14.999Z,97567.72
2022-07-25T17:18:23.481Z,97565.31
2022-07-25T17:21:52.452Z,97565.72
2022-07-25T17:24:57.119Z,97559.66
2022-07-25T17:28:02.251Z,97553.78
2022-07-25T17:31:08.709Z,97558.66
2022-07-25T17:34:15.381Z,97561.75
2022-07-25T17:37:23.180Z,97555.84
2022-07-25T17:40:28.685Z,97569.34
2022-07-25T17:43:33.569Z,97562.28
2022-07-25T17:46:37.565Z,97562.13
2022-07-25T17:50:02.174Z,97558.09
2022-07-25T17:53:07.238Z,97557.66
2022-07-25T17:56:13.791Z,97558.59
2022-07-25T17:59:18.781Z,97556.34
2022-07-25T18:02:23.666Z,97553.78
2022-07-25T18:05:29.566Z,97553.03
2022-07-25T18:08:36.065Z,97544.13
2022-07-25T18:11:41.097Z,97549.56
2022-07-25T18:14:46.089Z,97550.16
2022-07-25T18:17:50.599Z,97552.19
2022-07-25T18:20:57.038Z,97553.69
2022-07-25T18:24:04.412Z,97552.84
2022-07-25T18:27:10.133Z,97562.50
2022-07-25T18:30:15.472Z,97559.44
2022-07-25T18:33:22.356Z,97567.25
2022-07-25T18:36:30.067Z,97571.84
2022-07-25T18:39:34.421Z,97574.03
2022-07-25T18:42:38.177Z,97578.06
2022-07-25T18:45:42.619Z,97584.03
2022-07-25T18:48:47.045Z,97584.28
2022-07-25T18:51:52.812Z,97588.34
2022-07-25T18:54:57.305Z,97580.19
2022-07-25T18:58:03.496Z,97584.91
2022-07-25T19:01:13.202Z,97600.19
2022-07-25T19:04:20.327Z,97601.00
2022-07-25T19:07:27.240Z,97599.78
2022-07-25T19:10:35.519Z,97606.72
2022-07-25T19:13:49.828Z,97610.97
2022-07-25T19:16:56.585Z,97602.88
2022-07-25T19:20:01.394Z,97603.47
2022-07-25T19:23:22.909Z,97609.78
2022-07-25T19:26:26.913Z,97612.78
2022-07-25T19:29:31.092Z,97615.41
2022-07-25T19:32:37.818Z,97609.94
2022-07-25T19:35:45.583Z,97607.13
2022-07-25T19:38:53.965Z,97606.97
2022-07-25T19:41:58.082Z,97613.00
2022-07-25T19:45:06.894Z,97604.22
2022-07-25T19:48:14.387Z,97616.63
2022-07-25T19:51:18.252Z,97612.47
2022-07-25T19:54:24.076Z,97615.88
2022-07-25T19:57:28.007Z,97612.06
2022-07-25T20:00:31.993Z,97612.78
2022-07-25T20:03:38.588Z,97608.59
2022-07-25T20:06:44.362Z,97610.84
2022-07-25T20:09:54.425Z,97613.63
2022-07-25T20:13:01.399Z,97615.94
2022-07-25T20:16:06.505Z,97613.75
2022-07-25T20:19:12.935Z,97606.84
2022-07-25T20:22:19.310Z,97604.97
2022-07-25T20:25:26.713Z,97603.03
2022-07-25T20:28:33.600Z,97602.34
2022-07-25T20:31:39.241Z,97606.75
2022-07-25T20:34:45.986Z,97598.47
2022-07-25T20:37:52.662Z,97603.97
2022-07-25T20:40:58.942Z,97610.47
2022-07-25T20:44:09.297Z,97615.44
2022-07-25T20:47:16.887Z,97614.19
2022-07-25T20:50:24.239Z,97608.47
2022-07-25T20:53:33.344Z,97608.22
2022-07-25T20:56:47.354Z,97601.31
2022-07-25T20:59:51.604Z,97601.84
2022-07-25T21:03:32.556Z,97601.72
2022-07-25T21:06:37.138Z,97592.81
2022-07-25T21:09:46.202Z,97593.34
2022-07-25T21:13:12.393Z,97609.94
2022-07-25T21:19:38.872Z,97602.13
2022-07-25T21:22:45.439Z,97603.34
2022-07-25T21:25:50.538Z,97604.69
2022-07-25T21:28:57.923Z,97607.38
2022-07-25T21:32:02.318Z,97606.34
2022-07-25T21:35:07.834Z,97599.72
2022-07-25T21:38:11.749Z,97595.78
2022-07-25T21:41:31.817Z,97598.97
2022-07-25T21:44:39.898Z,97595.47
2022-07-25T21:48:10.321Z,97598.72
2022-07-25T21:51:19.179Z,97590.31
2022-07-25T21:54:28.215Z,97606.50
2022-07-25T21:57:33.020Z,97589.00
2022-07-25T22:00:45.397Z,97597.97
2022-07-25T22:03:50.383Z,97600.47
2022-07-25T22:06:56.949Z,97594.28
2022-07-25T22:10:03.794Z,97606.09
2022-07-25T22:13:15.892Z,97600.59
2022-07-25T22:16:24.350Z,97598.97
2022-07-25T22:19:29.111Z,97591.28
2022-07-25T22:22:33.612Z,97591.47
2022-07-25T22:25:38.238Z,97595.28
2022-07-25T22:28:43.196Z,97593.81
2022-07-25T22:31:49.499Z,97600.28
2022-07-25T22:34:53.508Z,97597.78
2022-07-25T22:37:58.356Z,97596.81
2022-07-25T22:41:02.322Z,97590.75
2022-07-25T22:44:07.194Z,97596.69
2022-07-25T22:47:14.307Z,97598.84
2022-07-25T22:50:18.844Z,97587.59
2022-07-25T22:53:23.347Z,97593.56
2022-07-25T22:56:28.585Z,97585.72
2022-07-25T22:59:33.920Z,97581.69
2022-07-25T23:02:39.922Z,97584.00
2022-07-25T23:05:43.825Z,97581.28
2022-07-25T23:08:48.385Z,97576.91
2022-07-25T23:11:52.710Z,97581.09
2022-07-25T23:15:52.810Z,97582.16
2022-07-25T23:18:58.680Z,97577.88
2022-07-25T23:23:22.457Z,97583.34
2022-07-25T23:26:26.395Z,97571.34
2022-07-25T23:29:30.835Z,97584.78
2022-07-25T23:32:35.239Z,97579.59
2022-07-25T23:35:42.687Z,97574.50
2022-07-25T23:39:38.875Z,97569.91
2022-07-25T23:42:43.371Z,97566.38
2022-07-25T23:45:47.975Z,97572.66
2022-07-25T23:48:55.202Z,97571.97
2022-07-25T23:52:02.055Z,97574.31
2022-07-25T23:55:07.749Z,97570.97
2022-07-25T23:58:12.540Z,97569.34
